createdAt,value
2023-05-05T00:01:22.196Z,16.83
2023-05-05T00:03:01.953Z,16.79
2023-05-05T00:04:41.728Z,16.78
2023-05-05T00:06:21.504Z,16.75
2023-05-05T00:08:01.248Z,16.7
2023-05-05T00:09:41.018Z,16.68
2023-05-05T00:11:20.805Z,16.65
2023-05-05T00:13:00.547Z,16.64
2023-05-05T00:14:40.347Z,16.62
2023-05-05T00:16:20.112Z,16.6
2023-05-05T00:17:59.857Z,16.58
2023-05-05T00:19:39.644Z,16.54
2023-05-05T00:21:19.463Z,16.51
2023-05-05T00:22:59.178Z,16.5
2023-05-05T00:24:38.974Z,16.48
2023-05-05T00:26:18.699Z,16.45
2023-05-05T00:27:58.464Z,16.42
2023-05-05T00:29:38.233Z,16.4
2023-05-05T00:31:17.993Z,16.39
2023-05-05T00:32:57.778Z,16.37
2023-05-05T00:34:37.534Z,16.32
2023-05-05T00:36:17.310Z,16.32
2023-05-05T00:37:57.069Z,16.27
2023-05-05T00:39:36.834Z,16.27
2023-05-05T00:41:16.603Z,16.23
2023-05-05T00:42:56.385Z,16.2
2023-05-05T00:44:36.152Z,16.2
2023-05-05T00:46:15.919Z,16.16
2023-05-05T00:47:55.670Z,16.16
2023-05-05T00:49:35.452Z,16.12
2023-05-05T00:51:15.220Z,16.1
2023-05-05T00:52:54.984Z,16.07
2023-05-05T00:54:34.743Z,16.07
2023-05-05T00:56:14.538Z,16.04
2023-05-05T00:57:54.281Z,16.02
2023-05-05T00:59:34.055Z,15.98
2023-05-05T01:01:13.824Z,15.97
2023-05-05T01:02:53.591Z,15.96
2023-05-05T01:04:33.356Z,15.92
2023-05-05T01:06:13.119Z,15.89
2023-05-05T01:07:52.905Z,15.89
2023-05-05T01:09:32.672Z,15.88
2023-05-05T01:11:12.433Z,15.85
2023-05-05T01:12:52.191Z,15.84
2023-05-05T01:14:31.963Z,15.78
2023-05-05T01:16:11.722Z,15.77
2023-05-05T01:17:51.491Z,15.77
2023-05-05T01:19:31.257Z,15.74
2023-05-05T01:21:11.032Z,15.7
2023-05-05T01:22:50.805Z,15.7
2023-05-05T01:24:30.562Z,15.67
2023-05-05T01:26:10.334Z,15.66
2023-05-05T01:27:50.098Z,15.63
2023-05-05T01:29:29.881Z,15.62
2023-05-05T01:31:09.678Z,15.58
2023-05-05T01:32:49.392Z,15.55
2023-05-05T01:34:29.172Z,15.55
2023-05-05T01:36:08.930Z,15.53
2023-05-05T01:37:48.700Z,15.52
2023-05-05T01:39:28.467Z,15.5
2023-05-05T01:41:08.252Z,15.45
2023-05-05T01:42:48.019Z,15.45
2023-05-05T01:44:27.764Z,15.43
2023-05-05T01:46:07.543Z,15.39
2023-05-05T01:47:47.310Z,15.38
2023-05-05T01:49:27.074Z,15.36
2023-05-05T01:51:06.879Z,15.34
2023-05-05T01:52:46.617Z,15.34
2023-05-05T01:54:26.376Z,15.31
2023-05-05T01:56:06.146Z,15.27
2023-05-05T01:57:45.908Z,15.28
2023-05-05T01:59:25.674Z,15.25
2023-05-05T02:01:05.442Z,15.23
2023-05-05T02:02:45.201Z,15.2
2023-05-05T02:04:24.967Z,15.19
2023-05-05T02:06:04.740Z,15.17
2023-05-05T02:07:44.504Z,15.15
2023-05-05T02:09:24.266Z,15.13
2023-05-05T02:11:04.060Z,15.09
2023-05-05T02:12:43.813Z,15.09
2023-05-05T02:14:23.578Z,15.08
2023-05-05T02:16:03.369Z,15.04
2023-05-05T02:17:43.114Z,15.02
2023-05-05T02:19:22.896Z,15.03
2023-05-05T02:21:02.638Z,14.99
2023-05-05T02:22:42.421Z,14.98
2023-05-05T02:24:22.196Z,14.94
2023-05-05T02:26:01.967Z,14.92
2023-05-05T02:27:41.732Z,14.9
2023-05-05T02:29:21.499Z,14.88
2023-05-05T02:31:01.268Z,14.89
2023-05-05T02:32:41.043Z,14.88
2023-05-05T02:34:20.799Z,14.86
2023-05-05T02:36:00.569Z,14.84
2023-05-05T02:37:40.320Z,14.81
2023-05-05T02:39:20.099Z,14.77
2023-05-05T02:40:59.856Z,14.77
2023-05-05T02:42:39.817Z,14.73
2023-05-05T02:44:19.400Z,14.72
2023-05-05T02:45:59.175Z,14.7
2023-05-05T02:47:38.986Z,14.69
2023-05-05T02:49:18.705Z,14.66
2023-05-05T02:50:58.469Z,14.66
2023-05-05T02:52:38.287Z,14.65
2023-05-05T02:54:17.995Z,14.62
2023-05-05T02:55:57.773Z,14.59
2023-05-05T02:57:37.591Z,14.58
2023-05-05T02:59:17.323Z,14.57
2023-05-05T03:00:57.077Z,14.53
2023-05-05T03:02:36.840Z,14.52
2023-05-05T03:04:16.602Z,14.52
2023-05-05T03:05:56.398Z,14.49
2023-05-05T03:07:36.142Z,14.45
2023-05-05T03:09:15.924Z,14.46
2023-05-05T03:10:55.694Z,14.45
2023-05-05T03:12:35.446Z,14.43
2023-05-05T03:14:15.222Z,14.47
2023-05-05T03:15:54.972Z,14.46
2023-05-05T03:17:34.747Z,14.46
2023-05-05T03:19:14.518Z,14.46
2023-05-05T03:20:54.292Z,14.48
2023-05-05T03:22:34.045Z,14.47
2023-05-05T03:24:13.819Z,14.47
2023-05-05T03:25:53.577Z,14.48
2023-05-05T03:27:33.342Z,14.48
2023-05-05T03:29:13.118Z,14.5
2023-05-05T03:30:52.877Z,14.46
2023-05-05T03:32:32.649Z,14.48
2023-05-05T03:34:12.413Z,14.45
2023-05-05T03:35:52.183Z,14.48
2023-05-05T03:37:31.957Z,14.46
2023-05-05T03:39:11.723Z,14.46
2023-05-05T03:40:51.487Z,14.47
2023-05-05T03:42:31.250Z,14.44
2023-05-05T03:44:11.029Z,14.45
2023-05-05T03:45:50.789Z,14.47
2023-05-05T03:47:30.571Z,14.45
2023-05-05T03:49:10.322Z,14.43
2023-05-05T03:50:50.096Z,14.45
2023-05-05T03:52:29.850Z,14.44
2023-05-05T03:54:09.633Z,14.44
2023-05-05T03:55:49.385Z,14.4
2023-05-05T03:57:29.157Z,14.42
2023-05-05T03:59:08.932Z,14.43
2023-05-05T04:00:48.717Z,14.4
2023-05-05T04:02:28.464Z,14.39
2023-05-05T04:04:08.240Z,14.4
2023-05-05T04:05:48.015Z,14.38
2023-05-05T04:07:27.782Z,14.38
2023-05-05T04:09:07.547Z,14.38
2023-05-05T04:10:47.327Z,14.32
2023-05-05T04:12:27.089Z,14.33
2023-05-05T04:14:06.860Z,14.36
2023-05-05T04:15:46.630Z,14.34
2023-05-05T04:17:26.428Z,14.32
2023-05-05T04:19:06.183Z,14.3
2023-05-05T04:20:45.975Z,14.32
2023-05-05T04:22:25.732Z,14.31
2023-05-05T04:24:05.502Z,14.29
2023-05-05T04:25:45.273Z,14.3
2023-05-05T04:27:25.027Z,14.28
2023-05-05T04:29:04.804Z,14.27
2023-05-05T04:30:44.564Z,14.25
2023-05-05T04:32:24.350Z,14.26
2023-05-05T04:34:04.117Z,14.29
2023-05-05T04:35:43.890Z,14.24
2023-05-05T04:37:23.656Z,14.25
2023-05-05T04:39:03.423Z,14.21
2023-05-05T04:40:43.233Z,14.24
2023-05-05T04:42:22.969Z,14.25
2023-05-05T04:44:02.741Z,14.22
2023-05-05T04:45:42.505Z,14.22
2023-05-05T04:47:22.273Z,14.22
2023-05-05T04:49:02.055Z,14.21
2023-05-05T04:50:41.822Z,14.2
2023-05-05T04:52:21.596Z,14.2
2023-05-05T04:54:01.347Z,14.19
2023-05-05T04:55:41.117Z,14.17
2023-05-05T04:57:20.897Z,14.21
2023-05-05T04:59:00.670Z,14.2
2023-05-05T05:00:40.675Z,14.21
2023-05-05T05:02:20.227Z,14.21
2023-05-05T05:03:59.980Z,14.18
2023-05-05T05:05:39.747Z,14.19
2023-05-05T05:07:19.513Z,14.18
2023-05-05T05:08:59.290Z,14.2
2023-05-05T05:10:39.083Z,14.22
2023-05-05T05:12:18.845Z,14.25
2023-05-05T05:13:58.621Z,14.27
2023-05-05T05:15:38.364Z,14.36
2023-05-05T05:17:18.141Z,14.41
2023-05-05T05:18:57.909Z,14.44
2023-05-05T05:20:37.747Z,14.5
2023-05-05T05:22:17.448Z,14.57
2023-05-05T05:23:57.209Z,14.62
2023-05-05T05:25:36.988Z,14.62
2023-05-05T05:27:16.750Z,14.68
2023-05-05T05:28:56.521Z,14.68
2023-05-05T05:30:36.309Z,14.72
2023-05-05T05:32:16.065Z,14.7
2023-05-05T05:33:55.842Z,14.72
2023-05-05T05:35:35.620Z,14.72
2023-05-05T05:37:15.380Z,14.74
2023-05-05T05:38:55.148Z,14.74
2023-05-05T05:40:34.998Z,14.75
2023-05-05T05:42:14.687Z,14.77
2023-05-05T05:43:54.455Z,14.8
2023-05-05T05:45:34.227Z,14.81
2023-05-05T05:47:14.009Z,14.81
2023-05-05T05:48:53.772Z,14.84
2023-05-05T05:50:33.536Z,14.81
2023-05-05T05:52:13.318Z,14.86
2023-05-05T05:53:53.085Z,14.88
2023-05-05T05:55:32.866Z,14.9
2023-05-05T05:57:12.649Z,14.92
2023-05-05T05:58:52.390Z,14.94
2023-05-05T06:00:32.164Z,14.93
2023-05-05T06:02:11.933Z,14.96
2023-05-05T06:03:51.736Z,14.99
2023-05-05T06:05:31.563Z,15.02
2023-05-05T06:07:11.243Z,15.03
2023-05-05T06:08:51.022Z,15.07
2023-05-05T06:10:30.790Z,15.08
2023-05-05T06:12:10.557Z,15.11
2023-05-05T06:13:50.348Z,15.14
2023-05-05T06:15:30.152Z,15.17
2023-05-05T06:17:09.889Z,15.16
2023-05-05T06:18:49.637Z,15.2
2023-05-05T06:20:29.433Z,15.21
2023-05-05T06:22:09.195Z,15.24
2023-05-05T06:23:48.945Z,15.27
2023-05-05T06:25:28.707Z,15.32
2023-05-05T06:27:08.500Z,15.34
2023-05-05T06:28:48.268Z,15.35
2023-05-05T06:30:28.030Z,15.37
2023-05-05T06:32:07.801Z,15.39
2023-05-05T06:33:47.569Z,15.41
2023-05-05T06:35:27.393Z,15.44
2023-05-05T06:37:07.112Z,15.47
2023-05-05T06:38:46.891Z,15.49
2023-05-05T06:40:26.734Z,15.51
2023-05-05T06:42:06.453Z,15.55
2023-05-05T06:43:46.186Z,15.55
2023-05-05T06:45:25.970Z,15.58
2023-05-05T06:47:05.742Z,15.59
2023-05-05T06:48:45.505Z,15.65
2023-05-05T06:50:25.268Z,15.66
2023-05-05T06:52:05.043Z,15.68
2023-05-05T06:53:44.815Z,15.71
2023-05-05T06:55:24.596Z,15.72
2023-05-05T06:57:04.448Z,15.76
2023-05-05T06:58:44.144Z,15.77
2023-05-05T07:00:23.917Z,15.82
2023-05-05T07:02:03.672Z,15.86
2023-05-05T07:03:43.446Z,15.86
2023-05-05T07:05:23.221Z,15.89
2023-05-05T07:07:02.978Z,15.94
2023-05-05T07:08:42.750Z,15.93
2023-05-05T07:10:22.534Z,15.99
2023-05-05T07:12:02.305Z,16
2023-05-05T07:13:42.074Z,16.02
2023-05-05T07:15:21.843Z,16.02
2023-05-05T07:17:01.804Z,16.07
2023-05-05T07:18:41.532Z,16.08
2023-05-05T07:20:21.143Z,16.12
2023-05-05T07:22:01.135Z,16.15
2023-05-05T07:23:40.827Z,16.15
2023-05-05T07:25:20.669Z,16.19
2023-05-05T07:27:00.394Z,16.2
2023-05-05T07:28:40.009Z,16.21
2023-05-05T07:30:19.802Z,16.24
2023-05-05T07:31:59.689Z,16.29
2023-05-05T07:33:39.427Z,16.32
2023-05-05T07:35:19.189Z,16.33
2023-05-05T07:36:59.001Z,16.35
2023-05-05T07:38:38.773Z,16.41
2023-05-05T07:40:18.412Z,16.41
2023-05-05T07:41:58.303Z,16.44
2023-05-05T07:43:37.942Z,16.46
2023-05-05T07:45:17.796Z,16.5
2023-05-05T07:46:57.480Z,16.51
2023-05-05T07:48:37.243Z,16.53
2023-05-05T07:50:17.023Z,16.59
2023-05-05T07:51:56.784Z,16.57
2023-05-05T07:53:36.703Z,16.62
2023-05-05T07:55:16.391Z,16.65
2023-05-05T07:56:56.104Z,16.67
2023-05-05T07:58:35.882Z,16.68
2023-05-05T08:00:15.635Z,16.7
2023-05-05T08:01:55.395Z,16.75
2023-05-05T08:03:35.178Z,16.79
2023-05-05T08:05:14.960Z,16.81
2023-05-05T08:06:54.714Z,16.79
2023-05-05T08:08:34.500Z,16.83
2023-05-05T08:10:14.259Z,16.84
2023-05-05T08:11:54.028Z,16.87
2023-05-05T08:13:33.807Z,16.91
2023-05-05T08:15:13.564Z,16.93
2023-05-05T08:16:53.348Z,16.96
2023-05-05T08:18:33.129Z,17
2023-05-05T08:20:12.884Z,16.96
2023-05-05T08:21:52.669Z,16.95
2023-05-05T08:23:32.414Z,16.94
2023-05-05T08:25:12.190Z,16.95
2023-05-05T08:26:51.963Z,16.92
2023-05-05T08:28:31.741Z,16.92
2023-05-05T08:30:11.509Z,16.91
2023-05-05T08:31:51.309Z,16.96
2023-05-05T08:33:31.157Z,17.03
2023-05-05T08:35:10.821Z,17.07
2023-05-05T08:36:50.581Z,17.15
2023-05-05T08:38:30.356Z,17.19
2023-05-05T08:40:10.156Z,17.23
2023-05-05T08:41:49.898Z,17.27
2023-05-05T08:43:29.681Z,17.28
2023-05-05T08:45:09.434Z,17.33
2023-05-05T08:46:49.206Z,17.33
2023-05-05T08:48:29.060Z,17.37
2023-05-05T08:50:08.740Z,17.41
2023-05-05T08:51:48.544Z,17.42
2023-05-05T08:53:28.290Z,17.45
2023-05-05T08:55:08.046Z,17.48
2023-05-05T08:56:47.830Z,17.51
2023-05-05T08:58:27.594Z,17.54
2023-05-05T09:00:07.389Z,17.6
2023-05-05T09:01:47.191Z,17.61
2023-05-05T09:03:26.907Z,17.61
2023-05-05T09:05:06.676Z,17.62
2023-05-05T09:06:46.463Z,17.66
2023-05-05T09:08:26.236Z,17.73
2023-05-05T09:10:05.990Z,17.73
2023-05-05T09:11:45.751Z,17.79
2023-05-05T09:13:25.574Z,17.81
2023-05-05T09:15:05.292Z,17.81
2023-05-05T09:16:45.062Z,17.86
2023-05-05T09:18:24.848Z,17.87
2023-05-05T09:20:04.624Z,17.92
2023-05-05T09:21:44.481Z,17.98
2023-05-05T09:23:24.151Z,17.96
2023-05-05T09:25:03.912Z,17.99
2023-05-05T09:26:43.715Z,18.03
2023-05-05T09:28:23.463Z,18.09
2023-05-05T09:30:03.267Z,18.14
2023-05-05T09:31:43.010Z,18.14
2023-05-05T09:33:22.849Z,18.2
2023-05-05T09:35:02.545Z,18.2
2023-05-05T09:36:42.389Z,18.27
2023-05-05T09:38:22.092Z,18.28
2023-05-05T09:40:01.866Z,18.32
2023-05-05T09:41:41.627Z,18.34
2023-05-05T09:43:21.406Z,18.4
2023-05-05T09:45:01.165Z,18.44
2023-05-05T09:46:40.988Z,18.45
2023-05-05T09:48:20.715Z,18.5
2023-05-05T09:50:00.468Z,18.53
2023-05-05T09:51:40.249Z,18.57
2023-05-05T09:53:20.044Z,18.62
2023-05-05T09:54:59.871Z,18.65
2023-05-05T09:56:39.688Z,18.69
2023-05-05T09:58:19.398Z,18.71
2023-05-05T09:59:59.269Z,18.77
2023-05-05T10:01:39.016Z,18.81
2023-05-05T10:03:18.746Z,18.85
2023-05-05T10:04:58.513Z,18.87
2023-05-05T10:06:38.184Z,18.9
2023-05-05T10:08:17.959Z,18.94
2023-05-05T10:09:57.910Z,18.95
2023-05-05T10:11:37.642Z,18.99
2023-05-05T10:13:17.342Z,19.04
2023-05-05T10:14:57.169Z,19.1
2023-05-05T10:16:36.959Z,19.12
2023-05-05T10:18:16.686Z,19.17
2023-05-05T10:19:56.476Z,19.2
2023-05-05T10:21:36.097Z,19.23
2023-05-05T10:23:15.927Z,19.26
2023-05-05T10:24:55.787Z,19.29
2023-05-05T10:26:35.418Z,19.34
2023-05-05T10:28:15.195Z,19.4
2023-05-05T10:29:55.094Z,19.43
2023-05-05T10:31:34.800Z,19.45
2023-05-05T10:33:14.520Z,19.49
2023-05-05T10:34:54.283Z,19.54
2023-05-05T10:36:34.185Z,19.58
2023-05-05T10:38:13.998Z,19.6
2023-05-05T10:39:53.812Z,19.65
2023-05-05T10:41:33.368Z,19.69
2023-05-05T10:43:13.154Z,19.76
2023-05-05T10:44:52.912Z,19.78
2023-05-05T10:46:32.683Z,19.79
2023-05-05T10:48:12.457Z,19.84
2023-05-05T10:49:52.248Z,19.87
2023-05-05T10:51:32.023Z,19.91
2023-05-05T10:53:11.770Z,19.95
2023-05-05T10:54:51.537Z,20
2023-05-05T10:56:31.329Z,20.03
2023-05-05T10:58:11.092Z,20.09
2023-05-05T10:59:50.836Z,20.1
2023-05-05T11:01:30.611Z,20.14
2023-05-05T11:03:10.387Z,20.2
2023-05-05T11:04:50.148Z,20.24
2023-05-05T11:06:29.919Z,20.25
2023-05-05T11:08:09.694Z,20.32
2023-05-05T11:09:49.537Z,20.34
2023-05-05T11:11:29.257Z,20.37
2023-05-05T11:13:09.179Z,20.42
2023-05-05T11:14:48.914Z,20.45
2023-05-05T11:16:28.620Z,20.51
2023-05-05T11:18:08.326Z,20.55
2023-05-05T11:19:48.092Z,20.57
2023-05-05T11:21:27.863Z,20.65
2023-05-05T11:23:07.637Z,20.65
2023-05-05T11:24:47.396Z,20.71
2023-05-05T11:26:27.174Z,20.75
2023-05-05T11:28:06.949Z,20.77
2023-05-05T11:29:46.728Z,20.82
2023-05-05T11:31:26.480Z,20.84
2023-05-05T11:33:06.272Z,20.88
2023-05-05T11:34:46.026Z,20.93
2023-05-05T11:36:25.803Z,20.94
2023-05-05T11:38:05.567Z,20.99
2023-05-05T11:39:45.330Z,21.04
2023-05-05T11:41:25.126Z,21.06
2023-05-05T11:43:04.869Z,21.1
2023-05-05T11:44:44.643Z,21.13
2023-05-05T11:46:24.431Z,21.18
2023-05-05T11:48:04.174Z,21.22
2023-05-05T11:49:43.985Z,21.24
2023-05-05T11:51:23.732Z,21.28
2023-05-05T11:53:03.490Z,21.31
2023-05-05T11:54:43.263Z,21.34
2023-05-05T11:56:23.041Z,21.36
2023-05-05T11:58:02.819Z,21.4
2023-05-05T11:59:42.562Z,21.42
2023-05-05T12:01:22.348Z,21.44
2023-05-05T12:03:02.139Z,21.5
2023-05-05T12:04:41.900Z,21.53
2023-05-05T12:06:21.655Z,21.54
2023-05-05T12:08:01.435Z,21.58
2023-05-05T12:09:41.214Z,21.61
2023-05-05T12:11:20.979Z,21.67
2023-05-05T12:13:00.730Z,21.69
2023-05-05T12:14:40.520Z,21.73
2023-05-05T12:16:20.279Z,21.77
2023-05-05T12:18:00.053Z,21.79
2023-05-05T12:19:39.821Z,21.84
2023-05-05T12:21:19.618Z,21.83
2023-05-05T12:22:59.362Z,21.9
2023-05-05T12:24:39.132Z,21.91
2023-05-05T12:26:18.924Z,21.97
2023-05-05T12:27:58.668Z,21.97
2023-05-05T12:29:38.456Z,21.98
2023-05-05T12:31:18.232Z,22.05
2023-05-05T12:32:57.977Z,22.08
2023-05-05T12:34:37.765Z,22.08
2023-05-05T12:36:17.519Z,22.1
2023-05-05T12:37:57.288Z,22.14
2023-05-05T12:39:37.131Z,22.18
2023-05-05T12:41:16.853Z,22.23
2023-05-05T12:42:56.616Z,22.24
2023-05-05T12:44:36.465Z,22.25
2023-05-05T12:46:16.253Z,22.29
2023-05-05T12:47:55.917Z,22.33
2023-05-05T12:49:35.747Z,22.32
2023-05-05T12:51:15.465Z,22.37
2023-05-05T12:52:55.235Z,22.41
2023-05-05T12:54:34.998Z,22.44
2023-05-05T12:56:14.783Z,22.47
2023-05-05T12:57:54.548Z,22.52
2023-05-05T12:59:34.348Z,22.54
2023-05-05T13:01:14.084Z,22.57
2023-05-05T13:02:53.845Z,22.6
2023-05-05T13:04:33.630Z,22.59
2023-05-05T13:06:13.398Z,22.63
2023-05-05T13:07:53.184Z,22.69
2023-05-05T13:09:32.941Z,22.68
2023-05-05T13:11:12.719Z,22.73
2023-05-05T13:12:52.478Z,22.74
2023-05-05T13:14:32.241Z,22.77
2023-05-05T13:16:12.020Z,22.8
2023-05-05T13:17:51.781Z,22.83
2023-05-05T13:19:31.566Z,22.86
2023-05-05T13:21:11.341Z,22.89
2023-05-05T13:22:51.094Z,22.92
2023-05-05T13:24:30.857Z,22.95
2023-05-05T13:26:10.636Z,22.97
2023-05-05T13:27:50.466Z,23.01
2023-05-05T13:29:30.181Z,23.02
2023-05-05T13:31:09.933Z,23.04
2023-05-05T13:32:49.715Z,23.06
2023-05-05T13:34:29.501Z,23.11
2023-05-05T13:36:09.260Z,23.11
2023-05-05T13:37:49.027Z,23.16
2023-05-05T13:39:28.801Z,23.16
2023-05-05T13:41:08.617Z,23.17
2023-05-05T13:42:48.349Z,23.22
2023-05-05T13:44:28.115Z,23.24
2023-05-05T13:46:07.880Z,23.24
2023-05-05T13:47:47.654Z,23.25
2023-05-05T13:49:27.466Z,23.28
2023-05-05T13:51:07.214Z,23.32
2023-05-05T13:52:46.952Z,23.33
2023-05-05T13:54:26.765Z,23.34
2023-05-05T13:56:06.507Z,23.36
2023-05-05T13:57:46.296Z,23.35
2023-05-05T13:59:26.136Z,23.38
2023-05-05T14:01:05.811Z,23.41
2023-05-05T14:02:45.591Z,23.43
2023-05-05T14:04:25.373Z,23.44
2023-05-05T14:06:05.124Z,23.44
2023-05-05T14:07:44.906Z,23.48
2023-05-05T14:09:24.675Z,23.5
2023-05-05T14:11:04.438Z,23.5
2023-05-05T14:12:44.205Z,23.49
2023-05-05T14:14:23.968Z,23.51
2023-05-05T14:16:03.749Z,23.53
2023-05-05T14:17:43.527Z,23.54
2023-05-05T14:19:23.287Z,23.56
2023-05-05T14:21:03.073Z,23.58
2023-05-05T14:22:42.835Z,23.58
2023-05-05T14:24:22.599Z,23.61
2023-05-05T14:26:02.399Z,23.61
2023-05-05T14:27:42.140Z,23.62
2023-05-05T14:29:21.933Z,23.62
2023-05-05T14:31:01.683Z,23.64
2023-05-05T14:32:41.463Z,23.64
2023-05-05T14:34:21.236Z,23.67
2023-05-05T14:36:01.051Z,23.68
2023-05-05T14:37:40.772Z,23.7
2023-05-05T14:39:20.538Z,23.71
2023-05-05T14:41:00.363Z,23.71
2023-05-05T14:42:40.073Z,23.7
2023-05-05T14:44:19.848Z,23.71
2023-05-05T14:45:59.617Z,23.73
2023-05-05T14:47:39.386Z,23.71
2023-05-05T14:49:19.208Z,23.74
2023-05-05T14:50:58.936Z,23.72
2023-05-05T14:52:38.743Z,23.73
2023-05-05T14:54:18.483Z,23.74
2023-05-05T14:55:58.252Z,23.74
2023-05-05T14:57:38.077Z,23.75
2023-05-05T14:59:17.785Z,23.75
2023-05-05T15:00:57.559Z,23.76
2023-05-05T15:02:37.319Z,23.77
2023-05-05T15:04:17.101Z,23.78
2023-05-05T15:05:56.902Z,23.79
2023-05-05T15:07:36.632Z,23.77
2023-05-05T15:09:16.402Z,23.76
2023-05-05T15:10:56.177Z,23.76
2023-05-05T15:12:35.972Z,23.78
2023-05-05T15:14:15.723Z,23.77
2023-05-05T15:15:55.488Z,23.78
2023-05-05T15:17:35.269Z,23.79
2023-05-05T15:19:15.022Z,23.76
2023-05-05T15:20:54.815Z,23.76
2023-05-05T15:22:34.566Z,23.78
2023-05-05T15:24:14.335Z,23.78
2023-05-05T15:25:54.108Z,23.8
2023-05-05T15:27:33.877Z,23.76
2023-05-05T15:29:13.657Z,23.77
2023-05-05T15:30:53.417Z,23.78
2023-05-05T15:32:33.192Z,23.79
2023-05-05T15:34:12.970Z,23.78
2023-05-05T15:35:52.729Z,23.79
2023-05-05T15:37:32.545Z,23.77
2023-05-05T15:39:12.276Z,23.79
2023-05-05T15:40:52.042Z,23.77
2023-05-05T15:42:31.822Z,23.78
2023-05-05T15:44:11.575Z,23.76
2023-05-05T15:45:51.350Z,23.78
2023-05-05T15:47:31.118Z,23.77
2023-05-05T15:49:10.914Z,23.76
2023-05-05T15:50:50.653Z,23.78
2023-05-05T15:52:30.430Z,23.78
2023-05-05T15:54:10.200Z,23.78
2023-05-05T15:55:49.989Z,23.77
2023-05-05T15:57:29.737Z,23.76
2023-05-05T15:59:09.514Z,23.76
2023-05-05T16:00:49.279Z,23.76
2023-05-05T16:02:29.062Z,23.78
2023-05-05T16:04:08.825Z,23.74
2023-05-05T16:05:48.599Z,23.75
2023-05-05T16:07:28.371Z,23.74
2023-05-05T16:09:08.132Z,23.72
2023-05-05T16:10:47.917Z,23.72
2023-05-05T16:12:27.686Z,23.7
2023-05-05T16:14:07.443Z,23.71
2023-05-05T16:15:47.227Z,23.69
2023-05-05T16:17:26.999Z,23.69
2023-05-05T16:19:06.750Z,23.65
2023-05-05T16:20:46.540Z,23.65
2023-05-05T16:22:26.327Z,23.64
2023-05-05T16:24:06.071Z,23.63
2023-05-05T16:25:45.832Z,23.63
2023-05-05T16:27:25.617Z,23.62
2023-05-05T16:29:05.370Z,23.59
2023-05-05T16:30:45.162Z,23.6
2023-05-05T16:32:24.935Z,23.58
2023-05-05T16:34:04.714Z,23.57
2023-05-05T16:35:44.489Z,23.54
2023-05-05T16:37:24.240Z,23.54
2023-05-05T16:39:04.023Z,23.52
2023-05-05T16:40:43.764Z,23.52
2023-05-05T16:42:23.615Z,23.49
2023-05-05T16:44:03.325Z,23.46
2023-05-05T16:45:43.146Z,23.46
2023-05-05T16:47:22.862Z,23.43
2023-05-05T16:49:02.614Z,23.43
2023-05-05T16:50:42.397Z,23.42
2023-05-05T16:52:22.173Z,23.4
2023-05-05T16:54:01.976Z,23.38
2023-05-05T16:55:41.713Z,23.37
2023-05-05T16:57:21.482Z,23.35
2023-05-05T16:59:01.260Z,23.32
2023-05-05T17:00:41.027Z,23.31
2023-05-05T17:02:20.812Z,23.3
2023-05-05T17:04:00.565Z,23.29
2023-05-05T17:05:40.340Z,23.27
2023-05-05T17:07:20.105Z,23.24
2023-05-05T17:08:59.876Z,23.23
2023-05-05T17:10:39.639Z,23.2
2023-05-05T17:12:19.449Z,23.18
2023-05-05T17:13:59.175Z,23.13
2023-05-05T17:15:38.970Z,23.09
2023-05-05T17:17:18.724Z,23.09
2023-05-05T17:18:58.487Z,23.07
2023-05-05T17:20:38.353Z,23.04
2023-05-05T17:22:18.117Z,23.04
2023-05-05T17:23:57.819Z,22.99
2023-05-05T17:25:37.589Z,22.97
2023-05-05T17:27:17.489Z,22.95
2023-05-05T17:28:57.111Z,22.91
2023-05-05T17:30:36.882Z,22.88
2023-05-05T17:32:16.661Z,22.87
2023-05-05T17:33:56.461Z,22.85
2023-05-05T17:35:36.199Z,22.81
2023-05-05T17:37:15.961Z,22.83
2023-05-05T17:38:55.752Z,22.78
2023-05-05T17:40:35.515Z,22.77
2023-05-05T17:42:15.284Z,22.73
2023-05-05T17:43:55.061Z,22.72
2023-05-05T17:45:34.811Z,22.69
2023-05-05T17:47:14.669Z,22.64
2023-05-05T17:48:54.371Z,22.61
2023-05-05T17:50:34.123Z,22.58
2023-05-05T17:52:13.895Z,22.53
2023-05-05T17:53:53.656Z,22.51
2023-05-05T17:55:33.490Z,22.5
2023-05-05T17:57:13.195Z,22.45
2023-05-05T17:58:52.978Z,22.42
2023-05-05T18:00:32.744Z,22.4
2023-05-05T18:02:12.494Z,22.35
2023-05-05T18:03:52.316Z,22.34
2023-05-05T18:05:32.070Z,22.3
2023-05-05T18:07:11.802Z,22.27
2023-05-05T18:08:51.572Z,22.25
2023-05-05T18:10:31.349Z,22.2
2023-05-05T18:12:11.169Z,22.18
2023-05-05T18:13:50.923Z,22.14
2023-05-05T18:15:30.814Z,22.11
2023-05-05T18:17:10.394Z,22.07
2023-05-05T18:18:50.197Z,22.05
2023-05-05T18:20:29.940Z,22.02
2023-05-05T18:22:09.761Z,22
2023-05-05T18:23:49.546Z,21.95
2023-05-05T18:25:29.273Z,21.94
2023-05-05T18:27:09.050Z,21.9
2023-05-05T18:28:48.784Z,21.87
2023-05-05T18:30:28.560Z,21.85
2023-05-05T18:32:08.411Z,21.82
2023-05-05T18:33:48.088Z,21.77
2023-05-05T18:35:27.845Z,21.77
2023-05-05T18:37:07.665Z,21.72
2023-05-05T18:38:47.390Z,21.7
2023-05-05T18:40:27.162Z,21.64
2023-05-05T18:42:06.912Z,21.63
2023-05-05T18:43:46.689Z,21.62
2023-05-05T18:45:26.456Z,21.59
2023-05-05T18:47:06.213Z,21.53
2023-05-05T18:48:45.986Z,21.49
2023-05-05T18:50:25.757Z,21.45
2023-05-05T18:52:05.540Z,21.42
2023-05-05T18:53:45.287Z,21.34
2023-05-05T18:55:25.058Z,21.31
2023-05-05T18:57:04.861Z,21.25
2023-05-05T18:58:44.587Z,21.21
2023-05-05T19:00:24.455Z,21.17
2023-05-05T19:02:04.128Z,21.12
2023-05-05T19:03:43.894Z,21.07
2023-05-05T19:05:23.817Z,21.03
2023-05-05T19:07:03.423Z,20.98
2023-05-05T19:08:43.361Z,20.95
2023-05-05T19:10:23.077Z,20.9
2023-05-05T19:12:02.891Z,20.88
2023-05-05T19:13:42.661Z,20.84
2023-05-05T19:15:22.429Z,20.77
2023-05-05T19:17:02.029Z,20.75
2023-05-05T19:18:41.852Z,20.69
2023-05-05T19:20:21.815Z,20.65
2023-05-05T19:22:01.360Z,20.62
2023-05-05T19:23:41.112Z,20.57
2023-05-05T19:25:20.999Z,20.56
2023-05-05T19:27:00.777Z,20.52
2023-05-05T19:28:40.540Z,20.48
2023-05-05T19:30:20.389Z,20.43
2023-05-05T19:32:00.022Z,20.41
2023-05-05T19:33:39.860Z,20.35
2023-05-05T19:35:19.563Z,20.31
2023-05-05T19:36:59.291Z,20.28
2023-05-05T19:38:39.028Z,20.25
2023-05-05T19:40:18.781Z,20.23
2023-05-05T19:41:58.645Z,20.16
2023-05-05T19:43:38.420Z,20.15
2023-05-05T19:45:18.188Z,20.12
2023-05-05T19:46:57.856Z,20.07
2023-05-05T19:48:37.786Z,20.04
2023-05-05T19:50:17.381Z,20.01
2023-05-05T19:51:57.258Z,20
2023-05-05T19:53:37.087Z,19.95
2023-05-05T19:55:16.887Z,19.93
2023-05-05T19:56:56.598Z,19.89
2023-05-05T19:58:36.220Z,19.86
2023-05-05T20:00:16.187Z,19.81
2023-05-05T20:01:55.904Z,19.79
2023-05-05T20:03:35.531Z,19.77
2023-05-05T20:05:15.296Z,19.74
2023-05-05T20:06:55.212Z,19.71
2023-05-05T20:08:35.005Z,19.67
2023-05-05T20:10:14.658Z,19.65
2023-05-05T20:11:54.353Z,19.6
2023-05-05T20:13:34.191Z,19.57
2023-05-05T20:15:13.987Z,19.54
2023-05-05T20:16:53.856Z,19.51
2023-05-05T20:18:33.510Z,19.49
2023-05-05T20:20:13.194Z,19.45
2023-05-05T20:21:53.148Z,19.42
2023-05-05T20:23:32.831Z,19.39
2023-05-05T20:25:12.673Z,19.36
2023-05-05T20:26:52.512Z,19.36
2023-05-05T20:28:32.210Z,19.33
2023-05-05T20:30:11.898Z,19.27
2023-05-05T20:31:51.603Z,19.26
2023-05-05T20:33:31.507Z,19.24
2023-05-05T20:35:11.282Z,19.2
2023-05-05T20:36:51.083Z,19.16
2023-05-05T20:38:30.764Z,19.15
2023-05-05T20:40:10.466Z,19.11
2023-05-05T20:41:50.192Z,19.1
2023-05-05T20:43:29.950Z,19.04
2023-05-05T20:45:09.906Z,19.04
2023-05-05T20:46:49.538Z,19
2023-05-05T20:48:29.433Z,18.96
2023-05-05T20:50:09.022Z,18.95
2023-05-05T20:51:48.792Z,18.93
2023-05-05T20:53:28.725Z,18.87
2023-05-05T20:55:08.495Z,18.86
2023-05-05T20:56:48.096Z,18.83
2023-05-05T20:58:27.869Z,18.79
2023-05-05T21:00:07.806Z,18.78
2023-05-05T21:01:47.401Z,18.76
2023-05-05T21:03:27.367Z,18.7
2023-05-05T21:05:07.073Z,18.7
2023-05-05T21:06:46.913Z,18.66
2023-05-05T21:08:26.456Z,18.62
2023-05-05T21:10:06.433Z,18.6
2023-05-05T21:11:46.165Z,18.57
2023-05-05T21:13:25.917Z,18.54
2023-05-05T21:15:05.543Z,18.52
2023-05-05T21:16:45.288Z,18.5
2023-05-05T21:18:25.218Z,18.48
2023-05-05T21:20:04.842Z,18.45
2023-05-05T21:21:44.607Z,18.42
2023-05-05T21:23:24.462Z,18.42
2023-05-05T21:25:04.278Z,18.37
2023-05-05T21:26:43.901Z,18.36
2023-05-05T21:28:23.858Z,18.34
2023-05-05T21:30:03.421Z,18.31